createdAt,value
2022-11-29T00:01:09.943Z,11.75
2022-11-29T00:03:37.541Z,11.27
2022-11-29T00:06:13.038Z,10.93
2022-11-29T00:08:41.363Z,12.00
2022-11-29T00:11:14.187Z,11.48
2022-11-29T00:13:41.087Z,12.27
2022-11-29T00:16:10.537Z,11.77
2022-11-29T00:18:37.832Z,11.60
2022-11-29T00:21:08.446Z,11.88
2022-11-29T00:23:36.002Z,11.75
2022-11-29T00:26:07.074Z,12.13
2022-11-29T00:28:35.977Z,11.98
2022-11-29T00:31:24.215Z,11.85
2022-11-29T00:33:51.860Z,11.48
2022-11-29T00:36:19.582Z,10.68
2022-11-29T00:38:46.633Z,10.50
2022-11-29T00:41:13.752Z,10.57
2022-11-29T00:43:40.966Z,10.77
2022-11-29T00:46:08.717Z,10.45
2022-11-29T00:48:36.267Z,10.40
2022-11-29T00:51:04.716Z,10.95
2022-11-29T00:53:33.096Z,10.20
2022-11-29T00:55:59.926Z,10.45
2022-11-29T00:58:27.442Z,12.23
2022-11-29T01:00:54.837Z,12.02
2022-11-29T01:03:21.937Z,11.35
2022-11-29T01:05:49.087Z,11.32
2022-11-29T01:08:17.209Z,11.20
2022-11-29T01:10:44.151Z,10.57
2022-11-29T01:13:11.183Z,10.57
2022-11-29T01:15:38.385Z,11.13
2022-11-29T01:18:05.238Z,10.53
2022-11-29T01:20:32.050Z,10.82
2022-11-29T01:22:58.843Z,10.68
2022-11-29T01:25:25.663Z,10.20
2022-11-29T01:27:52.422Z,11.00
2022-11-29T01:30:19.386Z,11.23
2022-11-29T01:32:46.125Z,10.15
2022-11-29T01:35:12.843Z,10.50
2022-11-29T01:37:39.553Z,11.02
2022-11-29T01:40:07.078Z,10.82
2022-11-29T01:42:33.846Z,10.30
2022-11-29T01:45:08.363Z,10.60
2022-11-29T01:47:46.188Z,11.68
2022-11-29T01:50:13.526Z,10.75
2022-11-29T01:52:41.407Z,11.38
2022-11-29T01:55:09.943Z,11.10
2022-11-29T01:57:40.348Z,11.32
2022-11-29T02:00:15.540Z,12.18
2022-11-29T02:02:47.167Z,13.43
2022-11-29T02:05:16.846Z,13.55
2022-11-29T02:07:46.890Z,14.73
2022-11-29T02:10:15.642Z,14.40
2022-11-29T02:13:04.951Z,13.52
2022-11-29T02:15:53.120Z,14.27
2022-11-29T02:18:33.879Z,13.80
2022-11-29T02:21:21.767Z,14.05
2022-11-29T02:23:59.041Z,15.00
2022-11-29T02:26:50.148Z,14.73
2022-11-29T02:29:54.564Z,14.45
2022-11-29T02:32:48.403Z,14.50
2022-11-29T02:35:43.255Z,14.67
2022-11-29T02:38:30.627Z,14.18
2022-11-29T02:41:15.095Z,15.02
2022-11-29T02:44:09.451Z,14.38
2022-11-29T02:46:41.727Z,14.63
2022-11-29T02:49:36.487Z,15.00
2022-11-29T02:52:35.119Z,14.15
2022-11-29T02:55:21.439Z,14.50
2022-11-29T02:58:09.217Z,15.02
2022-11-29T03:00:41.960Z,16.05
2022-11-29T03:03:21.791Z,14.07
2022-11-29T03:06:17.415Z,14.65
2022-11-29T03:09:07.469Z,13.93
2022-11-29T03:11:50.757Z,14.50
2022-11-29T03:14:22.865Z,14.15
2022-11-29T03:17:11.360Z,14.43
2022-11-29T03:19:49.964Z,14.07
2022-11-29T03:22:25.317Z,14.90
2022-11-29T03:25:30.999Z,14.45
2022-11-29T03:28:27.517Z,15.10
2022-11-29T03:31:06.887Z,14.53
2022-11-29T03:34:12.650Z,14.55
2022-11-29T03:36:45.987Z,15.82
2022-11-29T03:39:18.710Z,14.60
2022-11-29T03:41:55.385Z,14.60
2022-11-29T03:44:35.751Z,15.53
2022-11-29T03:47:08.491Z,14.75
2022-11-29T03:49:41.144Z,16.85
2022-11-29T03:52:34.447Z,14.85
2022-11-29T03:55:22.631Z,13.73
2022-11-29T03:58:07.719Z,14.40
2022-11-29T04:01:12.285Z,14.10
2022-11-29T04:03:47.760Z,14.75
2022-11-29T04:06:36.237Z,14.63
2022-11-29T04:09:30.868Z,15.13
2022-11-29T04:12:06.297Z,15.47
2022-11-29T04:14:48.347Z,14.35
2022-11-29T04:17:39.460Z,15.48
2022-11-29T04:20:18.059Z,14.23
2022-11-29T04:23:17.262Z,15.82
2022-11-29T04:25:52.937Z,16.07
2022-11-29T04:28:46.879Z,15.68
2022-11-29T04:31:19.389Z,14.43
2022-11-29T04:34:14.844Z,15.07
2022-11-29T04:37:39.972Z,14.38
2022-11-29T04:40:19.698Z,14.77
2022-11-29T04:43:18.515Z,14.25
2022-11-29T04:46:03.143Z,13.05
2022-11-29T04:48:41.462Z,14.60
2022-11-29T04:51:31.320Z,14.73
2022-11-29T04:54:35.734Z,15.00
2022-11-29T04:57:08.523Z,14.02
2022-11-29T05:00:01.752Z,14.27
2022-11-29T05:02:51.300Z,13.57
2022-11-29T05:05:47.969Z,14.95
2022-11-29T05:08:45.296Z,12.90
2022-11-29T05:11:34.716Z,13.75
2022-11-29T05:14:26.946Z,13.65
2022-11-29T05:17:39.907Z,15.15
2022-11-29T05:20:37.014Z,13.38
2022-11-29T05:23:25.347Z,14.07
2022-11-29T05:25:59.339Z,14.45
2022-11-29T05:28:50.337Z,11.27
2022-11-29T05:31:31.897Z,15.77
2022-11-29T05:34:19.757Z,14.98
2022-11-29T05:37:07.472Z,14.90
2022-11-29T05:39:53.745Z,14.65
2022-11-29T05:42:29.320Z,15.20
2022-11-29T05:45:27.665Z,14.25
2022-11-29T05:48:04.511Z,15.75
2022-11-29T05:50:39.499Z,15.45
2022-11-29T05:53:30.971Z,15.48
2022-11-29T05:56:26.179Z,14.63
2022-11-29T05:58:58.335Z,15.63
2022-11-29T06:01:43.660Z,16.30
2022-11-29T06:04:32.203Z,17.00
2022-11-29T06:07:11.705Z,15.07
2022-11-29T06:09:51.298Z,14.70
2022-11-29T06:12:23.178Z,15.23
2022-11-29T06:14:57.061Z,16.08
2022-11-29T06:17:39.012Z,16.10
2022-11-29T06:20:10.992Z,17.05
2022-11-29T06:23:07.168Z,15.52
2022-11-29T06:26:04.491Z,19.13
2022-11-29T06:28:47.240Z,15.45
2022-11-29T06:31:23.676Z,18.23
2022-11-29T06:34:06.080Z,16.67
2022-11-29T06:36:50.753Z,15.63
2022-11-29T06:39:18.071Z,15.20
2022-11-29T06:41:45.376Z,14.68
2022-11-29T06:44:12.499Z,14.70
2022-11-29T06:46:54.855Z,16.83
2022-11-29T06:49:32.511Z,17.63
2022-11-29T06:52:33.253Z,16.02
2022-11-29T06:55:11.738Z,16.38
2022-11-29T06:57:56.250Z,17.17
2022-11-29T07:00:27.135Z,15.70
2022-11-29T07:03:14.751Z,14.40
2022-11-29T07:05:41.847Z,12.82
2022-11-29T07:08:18.843Z,16.85
2022-11-29T07:10:49.976Z,16.87
2022-11-29T07:13:18.442Z,15.75
2022-11-29T07:15:51.158Z,15.07
2022-11-29T07:18:29.196Z,15.98
2022-11-29T07:21:21.355Z,16.05
2022-11-29T07:24:05.205Z,13.38
2022-11-29T07:26:59.801Z,14.98
2022-11-29T07:29:41.720Z,15.60
2022-11-29T07:32:17.486Z,16.10
2022-11-29T07:34:44.479Z,15.63
2022-11-29T07:37:32.179Z,14.20
2022-11-29T07:40:16.229Z,13.82
2022-11-29T07:42:52.575Z,14.88
2022-11-29T07:45:33.397Z,14.82
2022-11-29T07:48:00.301Z,15.10
2022-11-29T07:50:27.880Z,15.17
2022-11-29T07:52:56.574Z,14.20
2022-11-29T07:55:25.886Z,16.38
2022-11-29T07:57:53.172Z,13.60
2022-11-29T08:00:20.676Z,13.80
2022-11-29T08:02:48.494Z,17.00
2022-11-29T08:05:15.330Z,15.10
2022-11-29T08:07:42.673Z,11.50
2022-11-29T08:10:12.794Z,12.25
2022-11-29T08:12:50.272Z,11.65
2022-11-29T08:15:19.482Z,13.80
2022-11-29T08:17:46.738Z,14.65
2022-11-29T08:20:14.743Z,15.70
2022-11-29T08:22:41.551Z,14.15
2022-11-29T08:25:09.522Z,13.15
2022-11-29T08:27:37.279Z,14.27
2022-11-29T08:30:05.511Z,10.15
2022-11-29T08:32:34.467Z,13.77
2022-11-29T08:35:01.188Z,15.52
2022-11-29T08:37:27.954Z,17.67
2022-11-29T08:39:55.353Z,17.47
2022-11-29T08:42:22.108Z,17.50
2022-11-29T08:44:48.767Z,15.45
2022-11-29T08:47:34.007Z,15.70
2022-11-29T08:50:03.644Z,12.98
2022-11-29T08:52:53.858Z,8.70
2022-11-29T08:55:22.239Z,15.35
2022-11-29T08:57:50.133Z,15.63
2022-11-29T09:00:18.630Z,15.90
2022-11-29T09:02:45.466Z,13.48
2022-11-29T09:05:12.341Z,16.73
2022-11-29T09:07:39.433Z,11.93
2022-11-29T09:10:08.431Z,15.18
2022-11-29T09:12:40.074Z,14.95
2022-11-29T09:15:10.125Z,14.02
2022-11-29T09:17:36.962Z,12.37
2022-11-29T09:20:05.221Z,15.32
2022-11-29T09:22:32.092Z,12.57
2022-11-29T09:24:58.853Z,13.70
2022-11-29T09:27:25.608Z,14.18
2022-11-29T09:29:52.344Z,14.25
2022-11-29T09:32:19.046Z,13.25
2022-11-29T09:34:46.104Z,12.65
2022-11-29T09:37:13.052Z,13.40
2022-11-29T09:39:41.538Z,11.50
2022-11-29T09:42:11.105Z,15.35
2022-11-29T09:44:59.590Z,11.32
2022-11-29T09:47:51.108Z,14.55
2022-11-29T09:50:33.920Z,14.60
2022-11-29T09:53:09.485Z,13.80
2022-11-29T09:55:53.754Z,14.70
2022-11-29T09:58:26.174Z,13.52
2022-11-29T10:00:58.760Z,10.25
2022-11-29T10:03:40.515Z,14.68
2022-11-29T10:06:12.860Z,14.15
2022-11-29T10:08:49.970Z,14.38
2022-11-29T10:11:38.432Z,12.13
2022-11-29T10:14:24.841Z,11.73
2022-11-29T10:17:15.429Z,14.13
2022-11-29T10:19:50.824Z,13.18
2022-11-29T10:22:41.755Z,13.48
2022-11-29T10:25:12.156Z,11.25
2022-11-29T10:27:40.401Z,12.70
2022-11-29T10:30:13.611Z,16.50
2022-11-29T10:32:41.079Z,14.50
2022-11-29T10:35:15.155Z,11.05
2022-11-29T10:37:41.983Z,11.07
2022-11-29T10:40:19.232Z,13.85
2022-11-29T10:42:49.765Z,9.75
2022-11-29T10:45:31.780Z,12.43
2022-11-29T10:48:03.546Z,11.13
2022-11-29T10:50:33.760Z,10.90
2022-11-29T10:53:12.303Z,11.73
2022-11-29T10:55:48.621Z,12.43
2022-11-29T10:58:28.354Z,12.57
2022-11-29T11:00:59.160Z,10.60
2022-11-29T11:03:32.262Z,12.80
2022-11-29T11:06:17.171Z,12.82
2022-11-29T11:08:48.045Z,11.98
2022-11-29T11:11:23.011Z,12.45
2022-11-29T11:14:01.423Z,12.38
2022-11-29T11:16:31.549Z,9.18
2022-11-29T11:19:27.930Z,12.65
2022-11-29T11:21:57.290Z,13.48
2022-11-29T11:24:32.904Z,13.75
2022-11-29T11:27:01.401Z,13.77
2022-11-29T11:29:39.669Z,12.57
2022-11-29T11:32:17.042Z,10.68
2022-11-29T11:34:55.447Z,12.77
2022-11-29T11:37:28.510Z,13.88
2022-11-29T11:39:57.916Z,12.48
2022-11-29T11:42:40.380Z,9.93
2022-11-29T11:45:13.095Z,11.82
2022-11-29T11:47:53.995Z,10.50
2022-11-29T11:50:28.446Z,10.00
2022-11-29T11:53:02.365Z,10.68
2022-11-29T11:55:39.314Z,9.88
2022-11-29T11:58:12.158Z,13.25
2022-11-29T12:01:03.360Z,13.20
2022-11-29T12:03:34.880Z,10.48
2022-11-29T12:06:16.870Z,12.05
2022-11-29T12:08:46.592Z,12.55
2022-11-29T12:11:16.194Z,12.00
2022-11-29T12:13:49.006Z,10.43
2022-11-29T12:16:27.484Z,11.20
2022-11-29T12:19:02.970Z,11.93
2022-11-29T12:21:37.181Z,12.07
2022-11-29T12:24:22.052Z,11.35
2022-11-29T12:26:56.810Z,10.68
2022-11-29T12:29:28.358Z,11.18
2022-11-29T12:32:39.811Z,13.25
2022-11-29T12:35:26.198Z,10.77
2022-11-29T12:38:23.691Z,10.20
2022-11-29T12:40:52.958Z,12.40
2022-11-29T12:44:05.260Z,11.27
2022-11-29T12:46:33.292Z,9.10
2022-11-29T12:49:12.035Z,12.75
2022-11-29T12:52:02.429Z,12.48
2022-11-29T12:54:44.190Z,11.52
2022-11-29T12:57:30.013Z,11.68
2022-11-29T13:00:03.594Z,11.85
2022-11-29T13:02:54.450Z,13.15
2022-11-29T13:05:36.507Z,12.70
2022-11-29T13:08:08.948Z,13.15
2022-11-29T13:10:57.307Z,11.50
2022-11-29T13:13:51.372Z,12.90
2022-11-29T13:16:25.103Z,11.57
2022-11-29T13:19:01.556Z,15.60
2022-11-29T13:21:59.098Z,10.70
2022-11-29T13:24:31.557Z,11.38
2022-11-29T13:27:01.385Z,14.55
2022-11-29T13:29:28.695Z,13.13
2022-11-29T13:31:55.977Z,9.77
2022-11-29T13:34:31.812Z,13.55
2022-11-29T13:37:04.844Z,12.60
2022-11-29T13:39:58.096Z,13.30
2022-11-29T13:42:39.863Z,8.73
2022-11-29T13:45:19.627Z,13.13
2022-11-29T13:47:51.568Z,10.55
2022-11-29T13:50:37.323Z,11.35
2022-11-29T13:53:13.163Z,14.65
2022-11-29T13:56:00.378Z,13.15
2022-11-29T13:58:32.945Z,13.75
2022-11-29T14:01:12.780Z,13.20
2022-11-29T14:03:45.096Z,12.80
2022-11-29T14:06:23.765Z,11.75
2022-11-29T14:11:42.989Z,10.82
2022-11-29T14:14:15.791Z,11.23
2022-11-29T14:16:42.507Z,13.93
2022-11-29T14:19:09.187Z,10.00
2022-11-29T14:22:06.719Z,13.93
2022-11-29T14:24:36.587Z,11.48
2022-11-29T14:27:06.107Z,11.77
2022-11-29T14:29:52.733Z,13.85
2022-11-29T14:32:56.372Z,12.88
2022-11-29T14:35:39.590Z,13.18
2022-11-29T14:38:30.656Z,12.40
2022-11-29T14:41:12.815Z,12.32
2022-11-29T14:43:41.625Z,14.80
2022-11-29T14:46:14.239Z,13.82
2022-11-29T14:48:56.046Z,13.75
2022-11-29T14:51:28.723Z,12.32
2022-11-29T14:54:19.603Z,11.02
2022-11-29T14:56:47.450Z,13.27
2022-11-29T14:59:42.589Z,13.87
2022-11-29T15:02:32.889Z,14.23
2022-11-29T15:05:30.751Z,13.65
2022-11-29T15:08:17.133Z,12.23
2022-11-29T15:10:49.235Z,13.65
2022-11-29T15:13:23.823Z,9.93
2022-11-29T15:16:16.674Z,13.23
2022-11-29T15:18:49.853Z,14.98
2022-11-29T15:21:46.811Z,14.90
2022-11-29T15:24:16.660Z,14.90
2022-11-29T15:27:03.443Z,15.40
2022-11-29T15:29:31.904Z,14.00
2022-11-29T15:32:05.412Z,14.55
2022-11-29T15:34:36.840Z,13.30
2022-11-29T15:37:04.722Z,15.00
2022-11-29T15:39:36.649Z,14.37
2022-11-29T15:42:10.618Z,13.55
2022-11-29T15:44:37.519Z,15.95
2022-11-29T15:47:23.594Z,15.18
2022-11-29T15:49:51.815Z,14.93
2022-11-29T15:52:27.471Z,15.48
2022-11-29T15:55:01.021Z,13.40
2022-11-29T15:57:38.273Z,11.60
2022-11-29T16:00:15.947Z,14.23
2022-11-29T16:03:02.170Z,13.70
2022-11-29T16:05:35.701Z,12.38
2022-11-29T16:08:13.010Z,13.15
2022-11-29T16:10:43.951Z,15.70
2022-11-29T16:13:31.131Z,16.08
2022-11-29T16:16:21.068Z,14.68
2022-11-29T16:18:49.714Z,12.80
2022-11-29T16:21:22.889Z,15.20
2022-11-29T16:23:49.851Z,15.05
2022-11-29T16:26:34.461Z,14.38
2022-11-29T16:29:01.497Z,14.82
2022-11-29T16:31:38.344Z,15.30
2022-11-29T16:34:13.962Z,14.30
2022-11-29T16:36:40.763Z,14.93
2022-11-29T16:39:21.723Z,14.02
2022-11-29T16:42:20.635Z,13.95
2022-11-29T16:44:50.353Z,14.87
2022-11-29T16:47:25.562Z,14.50
2022-11-29T16:50:01.553Z,14.07
2022-11-29T16:52:31.172Z,12.55
2022-11-29T16:54:58.254Z,11.55
2022-11-29T16:57:26.471Z,9.73
2022-11-29T16:59:53.162Z,14.82
2022-11-29T17:02:20.114Z,12.48
2022-11-29T17:04:47.945Z,11.90
2022-11-29T17:07:26.344Z,11.75
2022-11-29T17:09:53.660Z,14.13
2022-11-29T17:12:20.858Z,9.98
2022-11-29T17:14:48.085Z,11.40
2022-11-29T17:17:16.477Z,14.95
2022-11-29T17:19:43.573Z,10.82
2022-11-29T17:22:11.983Z,14.55
2022-11-29T17:24:44.754Z,10.00
2022-11-29T17:27:14.599Z,11.20
2022-11-29T17:29:41.433Z,12.07
2022-11-29T17:32:08.737Z,14.60
2022-11-29T17:34:35.801Z,13.43
2022-11-29T17:37:03.051Z,14.85
2022-11-29T17:39:30.063Z,13.38
2022-11-29T17:41:57.815Z,9.98
2022-11-29T17:44:24.790Z,12.57
2022-11-29T17:46:51.938Z,14.87
2022-11-29T17:49:19.401Z,15.00
2022-11-29T17:51:54.248Z,14.85
2022-11-29T17:54:22.621Z,13.77
2022-11-29T17:56:50.014Z,13.40
2022-11-29T17:59:17.816Z,15.00
2022-11-29T18:01:47.400Z,14.85
2022-11-29T18:04:14.521Z,12.48
2022-11-29T18:06:41.718Z,12.35
2022-11-29T18:09:10.539Z,10.50
2022-11-29T18:11:48.012Z,12.80
2022-11-29T18:14:19.077Z,11.73
2022-11-29T18:16:45.994Z,10.75
2022-11-29T18:19:15.702Z,12.90
2022-11-29T18:21:42.854Z,13.35
2022-11-29T18:24:10.374Z,13.77
2022-11-29T18:26:38.121Z,9.15
2022-11-29T18:29:06.084Z,10.40
2022-11-29T18:31:35.675Z,11.10
2022-11-29T18:34:09.926Z,14.00
2022-11-29T18:36:45.861Z,12.97
2022-11-29T18:39:18.369Z,11.98
2022-11-29T18:41:48.320Z,12.10
2022-11-29T18:44:18.117Z,12.45
2022-11-29T18:46:45.766Z,13.88
2022-11-29T18:49:15.005Z,14.87
2022-11-29T18:51:44.499Z,12.30
2022-11-29T18:54:12.219Z,11.75
2022-11-29T18:56:39.222Z,13.55
2022-11-29T18:59:10.985Z,13.27
2022-11-29T19:01:42.829Z,12.07
2022-11-29T19:04:15.906Z,11.25
2022-11-29T19:06:44.670Z,10.13
2022-11-29T19:09:15.074Z,11.70
2022-11-29T19:11:42.248Z,13.50
2022-11-29T19:14:11.839Z,14.13
2022-11-29T19:16:44.353Z,13.48
2022-11-29T19:19:11.889Z,12.48
2022-11-29T19:21:39.989Z,11.05
2022-11-29T19:24:13.744Z,13.18
2022-11-29T19:26:44.393Z,13.90
2022-11-29T19:29:11.564Z,12.20
2022-11-29T19:31:39.404Z,13.15
2022-11-29T19:34:06.614Z,12.25
2022-11-29T19:36:33.587Z,10.75
2022-11-29T19:39:01.837Z,8.93
2022-11-29T19:41:31.121Z,12.57
2022-11-29T19:44:02.997Z,11.40
2022-11-29T19:46:38.421Z,13.18
2022-11-29T19:49:07.294Z,13.57
2022-11-29T19:51:34.779Z,12.80
2022-11-29T19:54:04.321Z,10.93
2022-11-29T19:56:32.437Z,13.07
2022-11-29T19:58:59.924Z,13.95
2022-11-29T20:01:37.765Z,14.23
2022-11-29T20:04:04.849Z,12.57
2022-11-29T20:06:31.622Z,14.25
2022-11-29T20:08:58.604Z,12.07
2022-11-29T20:11:26.075Z,12.93
2022-11-29T20:13:55.931Z,12.90
2022-11-29T20:16:23.646Z,13.00
2022-11-29T20:18:51.696Z,13.18
2022-11-29T20:21:24.714Z,13.80
2022-11-29T20:23:59.437Z,14.88
2022-11-29T20:26:28.039Z,12.75
2022-11-29T20:28:55.326Z,12.90
2022-11-29T20:31:23.376Z,12.98
2022-11-29T20:33:52.599Z,13.70
2022-11-29T20:36:46.346Z,14.18
2022-11-29T20:39:34.012Z,14.05
2022-11-29T20:42:37.394Z,13.93
2022-11-29T20:45:06.647Z,15.00
2022-11-29T20:47:58.543Z,13.63
2022-11-29T20:50:28.431Z,13.63
2022-11-29T20:53:29.876Z,14.25
2022-11-29T20:55:56.578Z,14.27
2022-11-29T20:58:23.672Z,14.45
2022-11-29T21:00:50.532Z,14.77
2022-11-29T21:03:18.410Z,14.45
2022-11-29T21:05:45.630Z,15.48
2022-11-29T21:08:14.021Z,15.30
2022-11-29T21:10:40.823Z,15.75
2022-11-29T21:13:08.483Z,12.95
2022-11-29T21:15:35.448Z,15.13
2022-11-29T21:18:02.442Z,14.65
2022-11-29T21:20:29.388Z,15.87
2022-11-29T21:23:04.865Z,14.00
2022-11-29T21:25:37.455Z,15.27
2022-11-29T21:28:10.730Z,15.80
2022-11-29T21:30:37.855Z,14.65
2022-11-29T21:33:04.955Z,15.63
2022-11-29T21:35:32.104Z,14.05
2022-11-29T21:38:00.818Z,15.25
2022-11-29T21:40:28.223Z,14.63
2022-11-29T21:42:54.939Z,12.73
2022-11-29T21:45:21.647Z,15.47
2022-11-29T21:47:48.618Z,13.98
2022-11-29T21:50:15.438Z,15.55
2022-11-29T21:52:44.240Z,15.52
2022-11-29T21:55:11.274Z,16.48
2022-11-29T21:57:38.894Z,15.83
2022-11-29T22:00:06.268Z,15.23
2022-11-29T22:02:33.110Z,16.30
2022-11-29T22:04:59.938Z,15.13
2022-11-29T22:07:27.111Z,14.77
2022-11-29T22:09:53.809Z,15.97
2022-11-29T22:12:33.800Z,17.83
2022-11-29T22:15:01.262Z,16.60
2022-11-29T22:17:27.921Z,15.02
2022-11-29T22:19:54.767Z,15.90
2022-11-29T22:22:21.539Z,14.67
2022-11-29T22:24:48.529Z,16.02
2022-11-29T22:27:18.354Z,15.90
2022-11-29T22:29:45.351Z,16.13
2022-11-29T22:32:13.666Z,16.90
2022-11-29T22:34:40.459Z,17.03
2022-11-29T22:37:07.161Z,15.48
2022-11-29T22:39:33.924Z,17.15
2022-11-29T22:42:00.671Z,17.55
2022-11-29T22:44:27.333Z,16.13
2022-11-29T22:46:54.168Z,18.08
2022-11-29T22:49:20.931Z,16.58
2022-11-29T22:51:47.846Z,17.77
2022-11-29T22:54:17.961Z,15.48
2022-11-29T22:56:45.750Z,15.82
2022-11-29T22:59:12.825Z,16.88
2022-11-29T23:01:41.387Z,14.48
2022-11-29T23:04:10.138Z,15.48
2022-11-29T23:06:42.106Z,17.42
2022-11-29T23:09:17.347Z,17.05
2022-11-29T23:11:45.895Z,16.90
2022-11-29T23:14:13.008Z,16.80
2022-11-29T23:16:40.041Z,15.98
2022-11-29T23:19:07.035Z,16.48
2022-11-29T23:21:36.502Z,16.42
2022-11-29T23:24:03.482Z,16.57
2022-11-29T23:26:30.223Z,16.73
2022-11-29T23:28:58.373Z,17.13
2022-11-29T23:31:25.416Z,17.42
2022-11-29T23:33:52.243Z,15.93
2022-11-29T23:36:19.215Z,16.03
2022-11-29T23:38:47.584Z,16.90
2022-11-29T23:41:14.750Z,16.58
2022-11-29T23:43:42.473Z,13.55
2022-11-29T23:46:10.521Z,15.80
2022-11-29T23:48:37.487Z,17.27
2022-11-29T23:51:04.703Z,14.95
2022-11-29T23:53:31.977Z,15.85
2022-11-29T23:56:04.357Z,15.57
2022-11-29T23:58:32.752Z,16.45
